Time;durP1;ratioP1;P1;durP2;ratioP2;P2;SDS_P1;SDS_P2;PMS_P1;PMS_P2;Temp;Humidity;BMP_temperature;BMP_pressure;BME280_temperature;BME280_humidity;BME280_pressure;Samples;Min_cycle;Max_cycle;Signal;HPM_P1;HPM_P2
2022/01/26 00:07:37;;;;;;;121.80;29.07;;;;;;;-0.50;100.00;151243.94;5070712;28;20525;-76
2022/01/26 00:10:13;;;;;;;207.00;35.80;;;;;;;-0.42;100.00;151264.47;5069994;28;20440;-76
2022/01/26 00:12:49;;;;;;;160.60;32.10;;;;;;;-0.46;100.00;151254.22;5069778;28;20448;-77
2022/01/26 00:15:25;;;;;;;83.13;26.23;;;;;;;-0.43;100.00;151261.94;5054295;28;20933;-77
2022/01/26 00:18:02;;;;;;;141.87;31.70;;;;;;;-0.41;100.00;151265.75;5071865;28;20883;-77
2022/01/26 00:20:43;;;;;;;369.20;45.77;;;;;;;-0.38;100.00;151274.75;5058920;28;20469;-76
2022/01/26 00:23:45;;;;;;;140.23;32.90;;;;;;;-0.38;100.00;151273.44;5058159;28;20423;-76
2022/01/26 00:26:27;;;;;;;135.07;29.63;;;;;;;-0.41;100.00;151267.03;5074090;28;20454;-76
2022/01/26 00:29:11;;;;;;;351.27;46.10;;;;;;;-0.37;100.00;151277.28;5064268;28;20429;-77
2022/01/26 00:40:34;;;;;;;399.17;45.70;;;;;;;-0.31;100.00;151291.41;5049831;28;20454;-76
2022/01/26 00:43:15;;;;;;;177.37;35.53;;;;;;;-0.38;100.00;151274.75;5075708;28;20443;-77
2022/01/26 00:45:55;;;;;;;268.27;39.17;;;;;;;-0.38;100.00;151274.75;5072237;28;20457;-76
2022/01/26 00:48:32;;;;;;;248.00;39.93;;;;;;;-0.41;100.00;151265.75;5073244;28;20461;-77
2022/01/26 00:51:14;;;;;;;188.33;35.80;;;;;;;-0.38;100.00;151274.75;5071061;28;20480;-76
2022/01/26 00:53:57;;;;;;;246.63;39.53;;;;;;;-0.32;100.00;151288.84;5057822;28;20429;-76
2022/01/26 00:56:33;;;;;;;213.80;36.27;;;;;;;-0.29;100.00;151296.56;5072148;28;20438;-77
2022/01/26 00:59:10;;;;;;;166.93;35.97;;;;;;;-0.32;100.00;151290.09;5058144;28;20453;-76
2022/01/26 01:01:46;;;;;;;259.60;41.77;;;;;;;-0.27;100.00;151302.97;5072874;28;20520;-77
2022/01/26 01:04:22;;;;;;;424.87;48.30;;;;;;;-0.30;100.00;151293.97;5058051;28;20440;-77
2022/01/26 01:07:02;;;;;;;282.63;42.20;;;;;;;-0.41;100.00;151267.03;5073286;28;20489;-77
2022/01/26 01:09:37;;;;;;;237.93;37.57;;;;;;;-0.36;100.00;151279.88;5072784;28;20457;-76
2022/01/26 01:12:13;;;;;;;180.27;38.00;;;;;;;-0.36;100.00;151279.88;5073310;28;20447;-77
2022/01/26 01:14:49;;;;;;;202.60;39.37;;;;;;;-0.34;100.00;151284.97;5072043;28;20464;-77
2022/01/26 01:17:32;;;;;;;287.13;44.77;;;;;;;-0.34;100.00;151284.97;5057360;28;20791;-77
2022/01/26 01:20:16;;;;;;;395.03;46.83;;;;;;;-0.32;100.00;151290.09;5072226;28;20899;-76
2022/01/26 01:23:12;;;;;;;354.67;47.47;;;;;;;-0.33;100.00;151287.56;5047616;28;20516;-76
2022/01/26 01:29:10;;;;;;;221.83;36.70;;;;;;;-0.38;100.00;151273.44;4991315;28;20443;-77
2022/01/26 01:31:49;;;;;;;95.50;28.40;;;;;;;-0.35;100.00;151282.44;5072144;28;20447;-77
2022/01/26 01:34:28;;;;;;;353.47;41.63;;;;;;;-0.35;100.00;151282.44;5056859;28;20445;-76
2022/01/26 01:37:06;;;;;;;168.27;30.97;;;;;;;-0.28;100.00;151300.41;5073654;28;20881;-76
2022/01/26 01:39:43;;;;;;;350.57;42.90;;;;;;;-0.25;100.00;151306.81;5071963;28;20790;-76
2022/01/26 01:42:19;;;;;;;332.60;39.30;;;;;;;-0.34;100.00;151284.97;5072711;28;20499;-76
2022/01/26 01:44:55;;;;;;;361.40;44.57;;;;;;;-0.46;100.00;151254.22;5073059;28;20909;-76
2022/01/26 01:47:30;;;;;;;188.27;32.30;;;;;;;-0.43;100.00;151261.94;5071971;28;20752;-76
2022/01/26 01:50:10;;;;;;;252.30;35.57;;;;;;;-0.36;100.00;151279.88;5055182;28;20426;-76
2022/01/26 01:52:46;;;;;;;325.80;42.00;;;;;;;-0.40;100.00;151268.34;5055901;28;20453;-77
2022/01/26 01:55:26;;;;;;;104.57;28.83;;;;;;;-0.38;100.00;151274.75;5072995;28;20449;-76
2022/01/26 01:58:02;;;;;;;267.77;37.93;;;;;;;-0.34;100.00;151283.69;5072664;28;20437;-77
2022/01/26 02:00:38;;;;;;;339.07;41.73;;;;;;;-0.33;100.00;151287.56;5106970;28;20461;-76
2022/01/26 02:03:14;;;;;;;305.43;41.23;;;;;;;-0.33;100.00;151286.28;5072370;28;20443;-76
2022/01/26 02:05:49;;;;;;;248.73;41.40;;;;;;;-0.35;100.00;151282.44;5072871;28;20540;-76
2022/01/26 02:08:25;;;;;;;310.63;41.00;;;;;;;-0.38;100.00;151274.75;5072055;28;20434;-77
2022/01/26 02:11:03;;;;;;;195.50;34.40;;;;;;;-0.32;100.00;151290.09;5083247;28;20443;-76
2022/01/26 02:13:47;;;;;;;150.10;32.10;;;;;;;-0.28;100.00;151300.41;5070995;28;20473;-76
2022/01/26 02:16:28;;;;;;;226.63;35.67;;;;;;;-0.28;100.00;151300.41;5071567;28;20449;-76
2022/01/26 02:19:38;;;;;;;315.77;38.67;;;;;;;-0.28;100.00;151300.41;5052517;28;20949;-77
2022/01/26 02:54:35;;;;;;;262.13;36.97;;;;;;;-0.39;100.00;151270.88;5071536;28;20437;-77
2022/01/26 02:57:33;;;;;;;293.20;36.90;;;;;;;-0.51;100.00;151240.09;5071376;28;20457;-76
2022/01/26 03:00:18;;;;;;;279.27;33.23;;;;;;;-0.53;100.00;151235.00;5035830;28;20490;-76
2022/01/26 03:02:58;;;;;;;189.93;31.47;;;;;;;-0.52;100.00;151238.81;5083587;28;20434;-76
2022/01/26 03:05:39;;;;;;;209.80;31.80;;;;;;;-0.50;100.00;151243.94;5070448;28;20439;-76
2022/01/26 03:08:15;;;;;;;209.77;33.77;;;;;;;-0.48;100.00;151247.81;5054701;28;20426;-76
2022/01/26 03:10:55;;;;;;;320.67;40.10;;;;;;;-0.51;100.00;151241.41;5056008;28;20523;-76
2022/01/26 03:13:34;;;;;;;160.23;31.77;;;;;;;-0.54;100.00;151232.41;5067714;28;20472;-77
2022/01/26 03:16:14;;;;;;;135.00;28.67;;;;;;;-0.51;100.00;151240.09;5063191;28;20442;-77
2022/01/26 03:18:59;;;;;;;144.53;27.73;;;;;;;-0.47;100.00;151251.63;5070904;28;20477;-77
2022/01/26 03:21:43;;;;;;;103.03;25.30;;;;;;;-0.46;100.00;151254.22;5070890;28;20484;-77
2022/01/26 03:30:09;;;;;;;84.43;24.10;;;;;;;-0.48;100.00;151249.09;5076231;28;20806;-76
2022/01/26 03:33:08;;;;;;;84.00;26.03;;;;;;;-0.51;100.00;151240.09;5069595;28;20792;-77
2022/01/26 03:35:47;;;;;;;89.37;23.27;;;;;;;-0.51;100.00;151240.09;5036145;28;20435;-77
2022/01/26 03:38:26;;;;;;;50.67;21.67;;;;;;;-0.55;100.00;151229.81;5070019;28;20445;-76
2022/01/26 03:41:14;;;;;;;114.53;25.80;;;;;;;-0.59;100.00;151219.59;5100319;28;20473;-77
2022/01/26 03:43:50;;;;;;;61.87;22.33;;;;;;;-0.64;100.00;151209.28;5069565;28;20437;-78
2022/01/26 03:46:27;;;;;;;53.83;22.77;;;;;;;-0.63;100.00;151211.88;5069852;28;20443;-76
2022/01/26 03:49:03;;;;;;;55.60;21.30;;;;;;;-0.60;100.00;151218.28;5057965;28;20439;-76
2022/01/26 03:51:40;;;;;;;44.90;23.00;;;;;;;-0.61;100.00;151215.75;5069925;28;20441;-77
2022/01/26 03:54:16;;;;;;;42.37;20.67;;;;;;;-0.56;100.00;151228.59;5055524;28;20539;-76
2022/01/26 03:56:52;;;;;;;59.90;20.87;;;;;;;-0.59;100.00;151220.88;5069846;28;20449;-76
2022/01/26 03:59:27;;;;;;;71.10;23.90;;;;;;;-0.67;100.00;151200.34;5070574;28;20777;-77
2022/01/26 04:02:04;;;;;;;64.53;22.57;;;;;;;-0.76;100.00;151177.25;5070413;28;20467;-77
2022/01/26 04:04:46;;;;;;;87.57;22.20;;;;;;;-0.75;100.00;151181.13;5050700;28;20521;-77
2022/01/26 04:07:22;;;;;;;49.83;18.67;;;;;;;-0.77;100.00;151174.72;5051148;28;20551;-77
2022/01/26 04:10:05;;;;;;;41.90;17.60;;;;;;;-0.74;100.00;151182.38;5071889;28;20434;-77
2022/01/26 04:12:41;;;;;;;53.40;20.17;;;;;;;-0.69;100.00;151195.25;5043679;28;20845;-76
2022/01/26 04:15:25;;;;;;;61.27;18.00;;;;;;;-0.68;100.00;151199.06;5054433;28;20980;-77
2022/01/26 04:18:04;;;;;;;34.17;18.00;;;;;;;-0.70;100.00;151193.94;5070190;28;20443;-77
2022/01/26 04:20:44;;;;;;;39.13;18.13;;;;;;;-0.84;100.00;151158.03;5071189;28;20535;-76
2022/01/26 04:23:25;;;;;;;40.93;17.00;;;;;;;-0.84;100.00;151156.72;5070325;28;20426;-76
2022/01/26 04:26:01;;;;;;;39.00;18.13;;;;;;;-0.95;100.00;151129.81;5070960;28;20463;-77
2022/01/26 04:28:43;;;;;;;41.40;17.67;;;;;;;-0.83;100.00;151159.31;5070582;28;20534;-76
2022/01/26 04:31:20;;;;;;;40.03;18.50;;;;;;;-0.89;100.00;151145.22;5061130;28;20448;-77
2022/01/26 04:33:57;;;;;;;38.47;17.00;;;;;;;-0.79;100.00;151169.56;5049859;28;20442;-76
2022/01/26 04:36:38;;;;;;;31.50;17.80;;;;;;;-0.80;100.00;151168.31;5037736;28;20462;-77
2022/01/26 04:39:18;;;;;;;45.70;17.00;;;;;;;-0.77;100.00;151174.72;5095323;28;20446;-76
2022/01/26 04:41:58;;;;;;;34.60;16.97;;;;;;;-0.80;100.00;151167.00;5050742;28;20577;-77
2022/01/26 04:44:38;;;;;;;31.07;16.90;;;;;;;-0.81;100.00;151165.72;5068925;28;20516;-76
2022/01/26 04:47:14;;;;;;;48.73;16.73;;;;;;;-0.86;100.00;151151.63;5069165;28;20831;-76
2022/01/26 04:49:51;;;;;;;42.23;18.00;;;;;;;-0.83;100.00;151159.31;5069924;28;20847;-76
2022/01/26 04:52:27;;;;;;;59.00;18.23;;;;;;;-0.91;100.00;151138.78;5054678;28;20444;-77
2022/01/26 04:55:02;;;;;;;44.17;17.20;;;;;;;-0.94;100.00;151131.09;5053957;28;20478;-76
2022/01/26 04:57:38;;;;;;;36.90;16.67;;;;;;;-0.95;100.00;151129.81;5070013;28;20533;-76
2022/01/26 05:00:14;;;;;;;32.80;18.60;;;;;;;-0.90;100.00;151141.38;5069778;28;20440;-76
2022/01/26 05:02:52;;;;;;;40.80;15.00;;;;;;;-0.84;100.00;151156.72;5070047;28;20781;-76
2022/01/26 05:05:31;;;;;;;29.47;15.60;;;;;;;-0.80;100.00;151167.00;5056990;28;20917;-77
2022/01/26 05:08:07;;;;;;;37.67;18.17;;;;;;;-0.75;100.00;151181.13;5056722;28;20532;-76
2022/01/26 05:10:45;;;;;;;44.90;16.43;;;;;;;-0.73;100.00;151186.25;5072582;28;20463;-76
2022/01/26 05:13:21;;;;;;;34.00;16.00;;;;;;;-0.73;100.00;151184.94;5072788;28;20464;-76
2022/01/26 05:15:57;;;;;;;34.73;17.83;;;;;;;-0.72;100.00;151187.53;5057859;28;20936;-76
2022/01/26 05:18:33;;;;;;;28.83;17.57;;;;;;;-0.75;100.00;151179.84;5072419;28;20437;-76
2022/01/26 05:21:10;;;;;;;30.20;17.20;;;;;;;-0.76;100.00;151177.25;5056783;28;20476;-76
2022/01/26 05:23:46;;;;;;;42.10;15.97;;;;;;;-0.87;100.00;151150.31;5072239;28;20426;-77
2022/01/26 05:26:22;;;;;;;35.07;18.20;;;;;;;-0.87;100.00;151149.03;5072565;28;20453;-76
2022/01/26 05:28:58;;;;;;;37.03;16.80;;;;;;;-0.82;100.00;151161.91;5065041;28;20438;-76
2022/01/26 05:31:33;;;;;;;25.80;15.73;;;;;;;-0.78;100.00;151172.13;5068630;28;20813;-76
2022/01/26 05:34:09;;;;;;;28.43;15.97;;;;;;;-0.73;100.00;151186.25;5056638;28;20472;-76
2022/01/26 05:36:46;;;;;;;34.17;17.23;;;;;;;-0.72;100.00;151187.53;5072407;28;20448;-76
2022/01/26 05:39:22;;;;;;;31.40;16.83;;;;;;;-0.73;100.00;151184.94;5100397;28;20524;-76
2022/01/26 05:41:58;;;;;;;27.50;16.47;;;;;;;-0.76;100.00;151178.53;5067857;28;20484;-76
2022/01/26 05:44:33;;;;;;;26.30;16.53;;;;;;;-0.71;100.00;151190.06;5072803;28;20449;-76
2022/01/26 05:47:14;;;;;;;31.43;17.53;;;;;;;-0.72;100.00;151187.53;5056575;28;20926;-76
2022/01/26 05:49:49;;;;;;;26.47;15.67;;;;;;;-0.68;100.00;151199.06;5058689;28;20443;-76
2022/01/26 05:52:26;;;;;;;33.00;16.10;;;;;;;-0.65;100.00;151205.47;5071440;28;20453;-76
2022/01/26 05:55:02;;;;;;;32.50;18.60;;;;;;;-0.66;100.00;151202.88;5072325;28;20444;-77
2022/01/26 05:57:37;;;;;;;31.60;17.63;;;;;;;-0.66;100.00;151202.88;5057356;28;20452;-76
2022/01/26 06:00:14;;;;;;;37.40;18.73;;;;;;;-0.66;100.00;151204.19;5080565;28;20450;-76
2022/01/26 06:02:52;;;;;;;27.13;15.97;;;;;;;-0.69;100.00;151196.47;5072585;28;20466;-77
2022/01/26 06:05:28;;;;;;;31.93;17.03;;;;;;;-0.64;100.00;151208.06;5053941;28;20464;-76
2022/01/26 06:08:05;;;;;;;34.20;18.63;;;;;;;-0.64;100.00;151208.06;5071766;28;20841;-76
2022/01/26 06:10:41;;;;;;;36.87;16.80;;;;;;;-0.65;100.00;151206.75;5072157;28;20442;-76
2022/01/26 06:13:16;;;;;;;34.67;17.43;;;;;;;-0.69;100.00;151195.25;5078813;28;20486;-76
2022/01/26 06:15:52;;;;;;;36.77;17.67;;;;;;;-0.75;100.00;151179.84;5071758;28;21284;-76
2022/01/26 06:18:27;;;;;;;30.87;18.60;;;;;;;-0.76;100.00;151177.25;5072415;28;20443;-76
2022/01/26 06:21:03;;;;;;;30.13;17.20;;;;;;;-0.75;100.00;151181.13;5072755;28;20448;-76
2022/01/26 06:23:40;;;;;;;27.90;16.07;;;;;;;-0.66;100.00;151202.88;5070850;28;20444;-76
2022/01/26 06:26:16;;;;;;;40.13;17.30;;;;;;;-0.70;100.00;151192.66;5071205;28;20470;-76
2022/01/26 06:28:52;;;;;;;30.33;16.90;;;;;;;-0.69;100.00;151196.47;5067019;28;20749;-76
2022/01/26 06:31:28;;;;;;;34.90;17.13;;;;;;;-0.73;100.00;151184.94;5071040;28;20435;-76
2022/01/26 06:34:04;;;;;;;26.60;16.00;;;;;;;-0.73;100.00;151184.94;5071369;28;20439;-76
2022/01/26 06:36:42;;;;;;;37.53;17.80;;;;;;;-0.70;100.00;151192.66;5037866;28;20545;-76
2022/01/26 06:39:20;;;;;;;27.73;17.00;;;;;;;-0.67;100.00;151200.34;5052416;28;20436;-77
2022/01/26 06:41:56;;;;;;;30.37;18.47;;;;;;;-0.67;100.00;151200.34;5069375;28;20468;-76
2022/01/26 06:44:35;;;;;;;33.20;17.60;;;;;;;-0.65;100.00;151205.47;5069098;28;20427;-76
2022/01/26 06:47:21;;;;;;;27.70;16.07;;;;;;;-0.66;100.00;151202.88;5070350;28;20527;-76
2022/01/26 06:49:56;;;;;;;37.13;19.27;;;;;;;-0.66;100.00;151202.88;5056333;28;20437;-76
2022/01/26 06:52:32;;;;;;;30.70;17.67;;;;;;;-0.68;100.00;151199.06;5071298;28;20466;-77
2022/01/26 06:55:09;;;;;;;36.83;16.13;;;;;;;-0.67;100.00;151200.34;5091298;28;20832;-76
2022/01/26 06:57:45;;;;;;;33.93;19.13;;;;;;;-0.66;100.00;151202.88;5069025;28;20481;-76
2022/01/26 07:00:21;;;;;;;29.27;17.37;;;;;;;-0.65;100.00;151205.47;5047375;28;20451;-76
2022/01/26 07:02:56;;;;;;;28.90;16.27;;;;;;;-0.70;100.00;151193.94;5069460;28;20472;-75
2022/01/26 07:05:32;;;;;;;30.37;17.00;;;;;;;-0.68;100.00;151199.06;5051888;28;20823;-75
2022/01/26 07:08:07;;;;;;;36.60;16.70;;;;;;;-0.77;100.00;151174.72;5065810;28;20518;-75
2022/01/26 07:10:47;;;;;;;28.13;16.50;;;;;;;-0.77;100.00;151174.72;5062832;28;20455;-75
2022/01/26 07:13:24;;;;;;;28.17;16.17;;;;;;;-0.78;100.00;151172.13;5049093;28;20647;-77
2022/01/26 07:21:45;;;;;;;30.13;15.37;;;;;;;-0.77;100.00;151175.97;5056469;28;20481;-77
2022/01/26 07:24:21;;;;;;;29.60;15.90;;;;;;;-0.79;100.00;151169.56;5068154;28;20851;-77
2022/01/26 07:26:58;;;;;;;31.90;17.90;;;;;;;-0.79;100.00;151169.56;5065342;28;20457;-77
2022/01/26 07:29:34;;;;;;;30.17;16.53;;;;;;;-0.84;100.00;151156.72;5058519;28;20470;-77
2022/01/26 07:32:09;;;;;;;38.80;16.97;;;;;;;-0.81;100.00;151164.44;5036657;28;20446;-77
2022/01/26 07:34:45;;;;;;;29.07;15.90;;;;;;;-0.80;100.00;151167.00;5049549;28;20475;-77
2022/01/26 07:37:24;;;;;;;25.60;15.20;;;;;;;-0.79;100.00;151169.56;5049673;28;21338;-77
2022/01/26 07:40:06;;;;;;;26.97;14.80;;;;;;;-0.80;100.00;151167.00;5048493;28;20445;-77
2022/01/26 07:42:43;;;;;;;23.27;14.43;;;;;;;-0.76;100.00;151177.25;5051458;28;20538;-77
2022/01/26 07:45:20;;;;;;;27.40;15.60;;;;;;;-0.79;100.00;151169.56;5086666;28;20445;-77
2022/01/26 07:48:02;;;;;;;24.47;14.47;;;;;;;-0.80;100.00;151167.00;5042922;28;20499;-77
2022/01/26 07:50:38;;;;;;;25.80;15.50;;;;;;;-0.78;100.00;151172.13;5063599;28;20455;-75
2022/01/26 07:53:16;;;;;;;26.43;15.73;;;;;;;-0.79;100.00;151169.56;5053897;28;20444;-76
2022/01/26 07:55:52;;;;;;;24.50;15.20;;;;;;;-0.77;100.00;151175.97;5053001;28;20458;-77
2022/01/26 07:58:31;;;;;;;25.17;15.40;;;;;;;-0.73;100.00;151186.25;5052713;28;20441;-76
2022/01/26 08:01:07;;;;;;;27.57;15.30;;;;;;;-0.83;100.00;151160.59;5034482;28;20551;-76
2022/01/26 08:03:43;;;;;;;37.27;17.20;;;;;;;-0.81;100.00;151164.44;5062062;28;20932;-77
2022/01/26 08:06:18;;;;;;;30.33;14.60;;;;;;;-0.72;100.00;151187.53;5067974;28;20449;-76
2022/01/26 08:08:54;;;;;;;26.00;15.50;;;;;;;-0.92;100.00;151137.50;5068631;28;20454;-77
2022/01/26 08:11:30;;;;;;;43.90;16.40;;;;;;;-0.92;100.00;151137.50;5089184;28;20449;-76
2022/01/26 08:14:06;;;;;;;25.93;14.63;;;;;;;-0.95;100.00;151128.50;5068522;28;20617;-77
2022/01/26 08:16:43;;;;;;;24.33;15.03;;;;;;;-0.89;100.00;151145.22;5053882;28;20439;-76
2022/01/26 08:19:19;;;;;;;30.03;17.07;;;;;;;-0.86;100.00;151152.91;5054171;28;20449;-77
2022/01/26 08:21:59;;;;;;;30.63;16.70;;;;;;;-0.83;100.00;151159.31;5095670;28;20472;-77
2022/01/26 08:24:35;;;;;;;27.73;17.47;;;;;;;-0.79;100.00;151169.56;5051045;28;20446;-76
2022/01/26 08:27:12;;;;;;;37.13;17.77;;;;;;;-0.71;100.00;151190.06;5061042;28;20485;-77
2022/01/26 08:29:53;;;;;;;28.57;16.07;;;;;;;-0.78;100.00;151173.44;5064323;28;20775;-77
2022/01/26 08:32:29;;;;;;;25.27;16.00;;;;;;;-0.73;100.00;151186.25;5051277;28;20435;-76
2022/01/26 08:35:05;;;;;;;27.83;17.00;;;;;;;-0.75;100.00;151179.84;5068278;28;20535;-77
2022/01/26 08:37:41;;;;;;;23.40;16.57;;;;;;;-0.64;100.00;151208.06;5067695;28;20538;-77
2022/01/26 08:40:17;;;;;;;30.50;19.43;;;;;;;-0.61;100.00;151217.00;5067701;28;20929;-77
2022/01/26 08:42:52;;;;;;;27.13;16.87;;;;;;;-0.56;100.00;151228.59;5057608;28;20545;-77
2022/01/26 08:45:30;;;;;;;33.73;17.87;;;;;;;-0.57;100.00;151226.00;5071983;28;20468;-76
2022/01/26 08:48:06;;;;;;;30.87;17.33;;;;;;;-0.60;100.00;151218.28;5071493;28;20449;-77
2022/01/26 08:50:42;;;;;;;34.17;19.97;;;;;;;-0.61;100.00;151215.75;5072796;28;20454;-77
2022/01/26 08:53:17;;;;;;;28.67;17.50;;;;;;;-0.52;100.00;151238.81;5068899;28;20984;-77
2022/01/26 08:55:53;;;;;;;31.60;17.80;;;;;;;-0.51;100.00;151240.09;5071472;28;20453;-76
2022/01/26 08:58:29;;;;;;;29.40;17.37;;;;;;;-0.45;100.00;151256.75;5058254;28;20430;-76
2022/01/26 09:01:06;;;;;;;37.50;19.63;;;;;;;-0.42;100.00;151264.47;5073029;28;20908;-77
2022/01/26 09:03:43;;;;;;;29.57;18.07;;;;;;;-0.39;100.00;151270.88;5101746;28;20504;-77
2022/01/26 09:06:18;;;;;;;30.17;18.20;;;;;;;-0.36;100.00;151278.56;5042956;28;20450;-77
2022/01/26 09:09:01;;;;;;;38.90;19.67;;;;;;;-0.34;100.00;151283.69;5056043;28;20452;-77
2022/01/26 09:11:39;;;;;;;29.90;18.70;;;;;;;-0.38;100.00;151274.75;5073365;28;20448;-77
2022/01/26 09:14:18;;;;;;;34.93;18.20;;;;;;;-0.32;100.00;151290.09;5053773;28;20469;-77
2022/01/26 09:16:55;;;;;;;29.40;17.57;;;;;;;-0.29;100.00;151296.56;5069294;28;20443;-77
2022/01/26 09:19:32;;;;;;;28.93;19.30;;;;;;;-0.30;100.00;151295.28;5070709;28;20434;-77
2022/01/26 09:22:10;;;;;;;28.13;17.70;;;;;;;-0.37;100.00;151277.28;5089906;28;20465;-77
2022/01/26 09:24:46;;;;;;;37.10;18.47;;;;;;;-0.41;100.00;151267.03;5069845;28;20430;-77
2022/01/26 09:27:21;;;;;;;33.57;18.90;;;;;;;-0.45;100.00;151256.75;5068580;28;20924;-77
2022/01/26 09:29:57;;;;;;;28.97;18.07;;;;;;;-0.45;100.00;151255.50;5057795;28;20784;-77
2022/01/26 09:32:34;;;;;;;36.07;18.30;;;;;;;-0.44;100.00;151259.34;5058044;28;20804;-77
2022/01/26 09:35:10;;;;;;;58.53;20.57;;;;;;;-0.43;100.00;151261.94;5107052;28;20444;-77
2022/01/26 09:37:46;;;;;;;28.77;17.73;;;;;;;-0.45;100.00;151255.50;5065525;28;20451;-77
2022/01/26 09:40:21;;;;;;;29.90;17.77;;;;;;;-0.46;100.00;151254.22;5095016;28;20444;-77
2022/01/26 09:42:57;;;;;;;39.67;19.30;;;;;;;-0.54;100.00;151232.41;5065105;28;20464;-77
2022/01/26 09:45:34;;;;;;;37.13;17.90;;;;;;;-0.50;100.00;151243.94;5056481;28;20446;-77
2022/01/26 09:48:12;;;;;;;37.17;17.33;;;;;;;-0.43;100.00;151261.94;5106408;28;20467;-77
2022/01/26 09:50:54;;;;;;;30.13;17.27;;;;;;;-0.36;100.00;151279.88;5055137;28;20474;-77
2022/01/26 09:53:32;;;;;;;37.37;18.40;;;;;;;-0.29;100.00;151296.56;5072326;28;20443;-76
2022/01/26 09:56:07;;;;;;;36.00;17.60;;;;;;;-0.37;100.00;151276.03;5087768;28;20450;-76
2022/01/26 09:58:43;;;;;;;34.90;16.73;;;;;;;-0.35;100.00;151282.44;5072221;28;20446;-76
2022/01/26 10:01:19;;;;;;;35.80;18.27;;;;;;;-0.33;100.00;151286.28;5072254;28;20445;-76
2022/01/26 10:03:56;;;;;;;35.73;17.20;;;;;;;-0.25;100.00;151308.09;5071800;28;20836;-76
2022/01/26 10:06:32;;;;;;;30.90;17.10;;;;;;;-0.21;100.00;151318.34;5071049;28;20450;-76
2022/01/26 10:09:40;;;;;;;25.00;15.93;;;;;;;-0.25;100.00;151308.09;5071806;28;20421;-76
2022/01/26 10:15:30;;;;;;;32.83;15.97;;;;;;;-0.20;100.00;151320.91;5072237;28;20759;-78
2022/01/26 10:18:08;;;;;;;28.70;16.57;;;;;;;-0.27;100.00;151302.97;5071964;28;20465;-77
2022/01/26 10:20:49;;;;;;;33.90;18.07;;;;;;;-0.17;100.00;151327.34;5076411;28;20921;-77
2022/01/26 10:23:26;;;;;;;29.00;15.40;;;;;;;-0.12;100.00;151341.44;5067848;28;20955;-77
2022/01/26 10:26:04;;;;;;;27.80;18.17;;;;;;;-0.16;100.00;151331.16;5072435;28;20444;-77
2022/01/26 10:28:44;;;;;;;33.47;18.10;;;;;;;-0.18;100.00;151326.03;5072012;28;20441;-77
2022/01/26 10:31:21;;;;;;;29.93;16.60;;;;;;;-0.14;100.00;151336.34;5071870;28;20445;-77
2022/01/26 10:33:59;;;;;;;37.33;17.73;;;;;;;-0.13;100.00;151337.56;5072154;28;20441;-77
2022/01/26 10:36:37;;;;;;;26.33;15.37;;;;;;;-0.06;100.00;151356.88;5068641;28;20438;-74
2022/01/26 10:39:14;;;;;;;32.83;18.00;;;;;;;-0.04;100.00;151360.69;5071332;28;20519;-77
2022/01/26 10:41:53;;;;;;;33.03;18.07;;;;;;;-0.06;100.00;151356.88;5066827;28;20444;-78
2022/01/26 10:44:31;;;;;;;36.47;18.40;;;;;;;0.04;100.00;151379.94;5071315;28;20551;-76
2022/01/26 10:47:08;;;;;;;32.13;18.40;;;;;;;0.08;100.00;151390.22;5071752;28;20462;-76
2022/01/26 10:50:06;;;;;;;33.00;19.20;;;;;;;0.05;100.00;151382.50;5073425;28;20409;-76
2022/01/26 10:52:42;;;;;;;28.70;16.50;;;;;;;0.02;100.00;151374.81;5065361;28;20459;-77
2022/01/26 10:55:18;;;;;;;31.73;19.33;;;;;;;0.09;100.00;151394.06;5050021;28;20958;-77
2022/01/26 10:57:53;;;;;;;31.30;17.20;;;;;;;0.12;100.00;151401.75;5069927;28;20440;-77
2022/01/26 11:00:30;;;;;;;34.57;17.37;;;;;;;0.12;100.00;151400.47;5085233;28;20436;-77
2022/01/26 11:03:06;;;;;;;34.00;17.70;;;;;;;0.14;100.00;151405.59;5054265;28;20476;-77
2022/01/26 11:05:42;;;;;;;27.67;16.00;;;;;;;0.17;100.00;151413.28;5056522;28;20452;-77
2022/01/26 11:08:20;;;;;;;25.37;15.37;;;;;;;0.18;100.00;151415.88;5070360;28;20436;-77
2022/01/26 11:10:55;;;;;;;27.13;16.83;;;;;;;0.26;100.00;151436.41;5070938;28;20503;-77
2022/01/26 11:13:34;;;;;;;27.00;15.37;;;;;;;0.23;100.00;151428.72;5066744;28;20461;-77
2022/01/26 11:16:11;;;;;;;26.60;14.87;;;;;;;0.25;100.00;151433.84;5058900;28;20570;-77
2022/01/26 11:18:49;;;;;;;25.47;15.97;;;;;;;0.32;100.00;151451.84;5070327;28;20444;-77
2022/01/26 11:21:26;;;;;;;29.10;16.03;;;;;;;0.34;100.00;151456.97;5061717;28;20459;-77
2022/01/26 11:24:09;;;;;;;32.30;16.33;;;;;;;0.22;100.00;151427.41;5055254;28;20486;-77
2022/01/26 11:26:46;;;;;;;30.10;16.07;;;;;;;0.13;100.00;151403.06;5070277;28;20459;-77
2022/01/26 11:29:32;;;;;;;29.97;16.63;;;;;;;0.09;100.00;151394.06;5066909;28;20430;-77
2022/01/26 11:32:13;;;;;;;25.83;15.47;;;;;;;0.16;100.00;151410.75;5071189;28;20460;-77
2022/01/26 11:34:50;;;;;;;26.40;16.23;;;;;;;0.18;100.00;151415.88;5070460;28;20456;-77
2022/01/26 11:37:35;;;;;;;29.20;17.67;;;;;;;0.21;100.00;151423.59;5070656;28;20448;-77
2022/01/26 11:46:07;;;;;;;30.33;17.20;;;;;;;0.22;100.00;151427.41;5062161;28;20447;-76
2022/01/26 11:48:42;;;;;;;26.03;17.57;;;;;;;0.13;100.00;151404.34;5062920;28;20455;-76
2022/01/26 11:51:17;;;;;;;29.67;16.60;;;;;;;0.24;100.00;151431.28;5079801;28;20551;-76
2022/01/26 11:53:53;;;;;;;33.10;16.47;;;;;;;0.30;100.00;151446.66;5069435;28;20570;-76
2022/01/26 11:56:30;;;;;;;26.83;16.83;;;;;;;0.38;100.00;151467.19;5069316;28;20460;-76
2022/01/26 11:59:06;;;;;;;32.30;17.37;;;;;;;0.40;100.00;151473.63;5062646;28;20500;-76
2022/01/26 12:01:43;;;;;;;33.13;17.23;;;;;;;0.40;100.00;151472.31;5070843;28;20844;-76
2022/01/26 12:04:19;;;;;;;34.53;18.17;;;;;;;0.37;100.00;151464.66;5081131;28;20471;-76
2022/01/26 12:07:00;;;;;;;30.53;18.00;;;;;;;0.34;100.00;151458.25;5054798;28;20443;-76
2022/01/26 12:09:36;;;;;;;28.50;18.47;;;;;;;0.31;100.00;151450.53;5070443;28;20477;-76
2022/01/26 12:12:18;;;;;;;32.80;18.30;;;;;;;0.32;100.00;151451.84;5071090;28;20900;-76
2022/01/26 12:15:03;;;;;;;26.93;17.63;;;;;;;0.30;100.00;151446.66;5073649;28;21156;-76
2022/01/26 12:17:50;;;;;;;36.23;19.60;;;;;;;0.24;100.00;151432.53;5075948;28;20444;-77
2022/01/26 12:32:13;;;;;;;38.53;16.50;;;;;;;0.08;100.00;151390.22;5073612;28;20486;-77
2022/01/26 12:34:59;;;;;;;33.23;17.43;;;;;;;0.03;100.00;151377.41;5070884;28;20520;-77
2022/01/26 12:37:49;;;;;;;54.50;19.43;;;;;;;0.02;100.00;151374.81;5073546;28;20522;-77
2022/01/26 12:43:21;;;;;;;98.97;22.40;;;;;;;-0.07;100.00;151354.28;5057185;28;20821;-77
2022/01/26 12:45:57;;;;;;;59.30;18.97;;;;;;;-0.16;100.00;151329.91;5057761;28;20454;-77
2022/01/26 12:48:34;;;;;;;63.40;19.83;;;;;;;-0.15;100.00;151332.47;5079405;28;20452;-77
2022/01/26 12:51:10;;;;;;;61.37;19.90;;;;;;;-0.16;100.00;151329.91;5072108;28;20435;-77
2022/01/26 12:53:52;;;;;;;37.40;17.10;;;;;;;-0.13;100.00;151338.88;5051994;28;20765;-77
2022/01/26 12:56:29;;;;;;;43.73;17.10;;;;;;;-0.02;100.00;151365.81;5055200;28;20483;-77
2022/01/26 12:59:06;;;;;;;61.33;20.20;;;;;;;-0.13;100.00;151337.56;5057071;28;20454;-77
2022/01/26 13:01:45;;;;;;;44.47;18.47;;;;;;;-0.18;100.00;151326.03;5072622;28;20441;-77
2022/01/26 13:04:21;;;;;;;47.07;18.60;;;;;;;-0.20;100.00;151319.63;5070501;28;20466;-77
2022/01/26 13:06:56;;;;;;;30.17;16.70;;;;;;;-0.11;100.00;151344.00;5106467;28;20970;-78
2022/01/26 13:09:39;;;;;;;33.43;15.80;;;;;;;-0.13;100.00;151337.56;5071628;28;20551;-77
2022/01/26 13:12:16;;;;;;;35.57;17.40;;;;;;;-0.17;100.00;151328.63;5073286;28;20995;-77
2022/01/26 13:15:05;;;;;;;37.53;17.97;;;;;;;-0.05;100.00;151359.41;5054317;28;20465;-77
2022/01/26 13:17:46;;;;;;;38.83;17.80;;;;;;;-0.12;100.00;151341.44;5103904;28;20437;-77